<?xml version="1.0" encoding="UTF-8" standalone="no" ?>
<gpx xmlns="http://www.topografix.com/GPX/1/1" xmlns:xsi="http://www.w3.org/2001/XMLSchema-instance" xsi:schemaLocation="http://www.topografix.com/GPX/1/1 http://www.topografix.com/GPX/1/1/gpx.xsd" version="1.1" creator="VisuGPX - https://www.visugpx.com">
  <metadata>
    <name>CDS j9</name>
    <desc><![CDATA[Chemin du soleil]]></desc>
  </metadata>
  <trk>
    <name><![CDATA[ACTIVE LOG171908]]></name>
    <trkseg>
      <trkpt lat="44.10161" lon="6.21147">
        <ele>775</ele>
        <time>2011-08-17T15:19:08Z</time>
      </trkpt>
      <trkpt lat="44.10163" lon="6.21151">
        <ele>775</ele>
        <time>2011-08-17T15:19:43Z</time>
      </trkpt>
      <trkpt lat="44.10159" lon="6.2115">
        <ele>775</ele>
        <time>2011-08-17T15:19:59Z</time>
      </trkpt>
      <trkpt lat="44.10159" lon="6.21151">
        <ele>775</ele>
        <time>2011-08-17T15:20:00Z</time>
      </trkpt>
      <trkpt lat="44.10155" lon="6.2115">
        <ele>775</ele>
        <time>2011-08-17T15:20:08Z</time>
      </trkpt>
      <trkpt lat="44.10127" lon="6.21151">
        <ele>772</ele>
        <time>2011-08-17T15:20:19Z</time>
      </trkpt>
      <trkpt lat="44.10092" lon="6.21185">
        <ele>763</ele>
        <time>2011-08-17T15:20:31Z</time>
      </trkpt>
      <trkpt lat="44.10067" lon="6.21204">
        <ele>751</ele>
        <time>2011-08-17T15:20:41Z</time>
      </trkpt>
      <trkpt lat="44.10046" lon="6.21216">
        <ele>749</ele>
        <time>2011-08-17T15:20:56Z</time>
      </trkpt>
      <trkpt lat="44.10038" lon="6.21224">
        <ele>748</ele>
        <time>2011-08-17T15:21:02Z</time>
      </trkpt>
      <trkpt lat="44.10029" lon="6.21224">
        <ele>747</ele>
        <time>2011-08-17T15:21:10Z</time>
      </trkpt>
      <trkpt lat="44.10021" lon="6.21227">
        <ele>746</ele>
        <time>2011-08-17T15:21:23Z</time>
      </trkpt>
      <trkpt lat="44.10018" lon="6.21227">
        <ele>745</ele>
        <time>2011-08-17T15:21:37Z</time>
      </trkpt>
      <trkpt lat="44.09985" lon="6.21228">
        <ele>735</ele>
        <time>2011-08-17T15:21:49Z</time>
      </trkpt>
      <trkpt lat="44.0997" lon="6.21231">
        <ele>733</ele>
        <time>2011-08-17T15:21:52Z</time>
      </trkpt>
      <trkpt lat="44.09937" lon="6.21259">
        <ele>736</ele>
        <time>2011-08-17T15:22:03Z</time>
      </trkpt>
      <trkpt lat="44.09921" lon="6.21283">
        <ele>739</ele>
        <time>2011-08-17T15:22:13Z</time>
      </trkpt>
      <trkpt lat="44.09927" lon="6.2129">
        <ele>741</ele>
        <time>2011-08-17T15:22:18Z</time>
      </trkpt>
      <trkpt lat="44.09936" lon="6.21286">
        <ele>741</ele>
        <time>2011-08-17T15:22:23Z</time>
      </trkpt>
      <trkpt lat="44.09955" lon="6.2128">
        <ele>741</ele>
        <time>2011-08-17T15:22:34Z</time>
      </trkpt>
      <trkpt lat="44.09955" lon="6.2131">
        <ele>745</ele>
        <time>2011-08-17T15:22:52Z</time>
      </trkpt>
      <trkpt lat="44.09928" lon="6.2134">
        <ele>753</ele>
        <time>2011-08-17T15:23:14Z</time>
      </trkpt>
      <trkpt lat="44.09914" lon="6.21371">
        <ele>747</ele>
        <time>2011-08-17T15:23:32Z</time>
      </trkpt>
      <trkpt lat="44.09911" lon="6.21416">
        <ele>758</ele>
        <time>2011-08-17T15:23:52Z</time>
      </trkpt>
      <trkpt lat="44.09907" lon="6.21454">
        <ele>759</ele>
        <time>2011-08-17T15:24:09Z</time>
      </trkpt>
      <trkpt lat="44.09892" lon="6.21498">
        <ele>761</ele>
        <time>2011-08-17T15:24:23Z</time>
      </trkpt>
      <trkpt lat="44.0988" lon="6.21568">
        <ele>766</ele>
        <time>2011-08-17T15:24:40Z</time>
      </trkpt>
      <trkpt lat="44.09884" lon="6.21663">
        <ele>772</ele>
        <time>2011-08-17T15:24:59Z</time>
      </trkpt>
      <trkpt lat="44.09887" lon="6.2173">
        <ele>771</ele>
        <time>2011-08-17T15:25:16Z</time>
      </trkpt>
      <trkpt lat="44.09884" lon="6.21747">
        <ele>771</ele>
        <time>2011-08-17T15:25:20Z</time>
      </trkpt>
      <trkpt lat="44.09875" lon="6.21757">
        <ele>769</ele>
        <time>2011-08-17T15:25:24Z</time>
      </trkpt>
      <trkpt lat="44.09864" lon="6.21796">
        <ele>769</ele>
        <time>2011-08-17T15:25:33Z</time>
      </trkpt>
      <trkpt lat="44.09857" lon="6.21816">
        <ele>768</ele>
        <time>2011-08-17T15:25:39Z</time>
      </trkpt>
      <trkpt lat="44.09858" lon="6.21822">
        <ele>768</ele>
        <time>2011-08-17T15:25:41Z</time>
      </trkpt>
      <trkpt lat="44.09853" lon="6.21832">
        <ele>767</ele>
        <time>2011-08-17T15:25:45Z</time>
      </trkpt>
      <trkpt lat="44.09843" lon="6.21839">
        <ele>769</ele>
        <time>2011-08-17T15:25:56Z</time>
      </trkpt>
      <trkpt lat="44.09832" lon="6.21854">
        <ele>766</ele>
        <time>2011-08-17T15:26:13Z</time>
      </trkpt>
      <trkpt lat="44.09827" lon="6.21861">
        <ele>766</ele>
        <time>2011-08-17T15:26:21Z</time>
      </trkpt>
      <trkpt lat="44.09816" lon="6.21881">
        <ele>768</ele>
        <time>2011-08-17T15:26:40Z</time>
      </trkpt>
      <trkpt lat="44.09807" lon="6.21895">
        <ele>769</ele>
        <time>2011-08-17T15:26:52Z</time>
      </trkpt>
      <trkpt lat="44.09782" lon="6.2192">
        <ele>779</ele>
        <time>2011-08-17T15:27:06Z</time>
      </trkpt>
      <trkpt lat="44.0974" lon="6.21939">
        <ele>777</ele>
        <time>2011-08-17T15:27:23Z</time>
      </trkpt>
      <trkpt lat="44.09704" lon="6.21952">
        <ele>778</ele>
        <time>2011-08-17T15:27:38Z</time>
      </trkpt>
      <trkpt lat="44.09657" lon="6.21983">
        <ele>780</ele>
        <time>2011-08-17T15:27:59Z</time>
      </trkpt>
      <trkpt lat="44.09626" lon="6.21987">
        <ele>777</ele>
        <time>2011-08-17T15:28:14Z</time>
      </trkpt>
      <trkpt lat="44.09594" lon="6.22007">
        <ele>785</ele>
        <time>2011-08-17T15:28:30Z</time>
      </trkpt>
      <trkpt lat="44.09561" lon="6.22036">
        <ele>785</ele>
        <time>2011-08-17T15:28:42Z</time>
      </trkpt>
      <trkpt lat="44.09514" lon="6.2204">
        <ele>782</ele>
        <time>2011-08-17T15:28:56Z</time>
      </trkpt>
      <trkpt lat="44.0948" lon="6.22044">
        <ele>776</ele>
        <time>2011-08-17T15:29:04Z</time>
      </trkpt>
      <trkpt lat="44.09456" lon="6.22039">
        <ele>775</ele>
        <time>2011-08-17T15:29:08Z</time>
      </trkpt>
      <trkpt lat="44.09435" lon="6.22049">
        <ele>775</ele>
        <time>2011-08-17T15:29:14Z</time>
      </trkpt>
      <trkpt lat="44.09389" lon="6.22068">
        <ele>769</ele>
        <time>2011-08-17T15:29:26Z</time>
      </trkpt>
      <trkpt lat="44.09337" lon="6.22101">
        <ele>762</ele>
        <time>2011-08-17T15:29:39Z</time>
      </trkpt>
      <trkpt lat="44.09289" lon="6.22141">
        <ele>746</ele>
        <time>2011-08-17T15:29:53Z</time>
      </trkpt>
      <trkpt lat="44.09281" lon="6.22155">
        <ele>744</ele>
        <time>2011-08-17T15:29:57Z</time>
      </trkpt>
      <trkpt lat="44.0927" lon="6.22163">
        <ele>742</ele>
        <time>2011-08-17T15:30:01Z</time>
      </trkpt>
      <trkpt lat="44.09249" lon="6.22163">
        <ele>735</ele>
        <time>2011-08-17T15:30:06Z</time>
      </trkpt>
      <trkpt lat="44.0925" lon="6.22171">
        <ele>732</ele>
        <time>2011-08-17T15:30:10Z</time>
      </trkpt>
      <trkpt lat="44.09255" lon="6.22179">
        <ele>734</ele>
        <time>2011-08-17T15:30:12Z</time>
      </trkpt>
      <trkpt lat="44.09261" lon="6.22189">
        <ele>732</ele>
        <time>2011-08-17T15:30:15Z</time>
      </trkpt>
      <trkpt lat="44.09291" lon="6.22212">
        <ele>730</ele>
        <time>2011-08-17T15:30:26Z</time>
      </trkpt>
      <trkpt lat="44.09274" lon="6.22218">
        <ele>728</ele>
        <time>2011-08-17T15:30:33Z</time>
      </trkpt>
      <trkpt lat="44.09268" lon="6.22219">
        <ele>728</ele>
        <time>2011-08-17T15:30:35Z</time>
      </trkpt>
      <trkpt lat="44.0927" lon="6.22225">
        <ele>727</ele>
        <time>2011-08-17T15:30:39Z</time>
      </trkpt>
      <trkpt lat="44.09273" lon="6.22245">
        <ele>724</ele>
        <time>2011-08-17T15:30:45Z</time>
      </trkpt>
      <trkpt lat="44.09264" lon="6.22303">
        <ele>715</ele>
        <time>2011-08-17T15:30:58Z</time>
      </trkpt>
      <trkpt lat="44.09254" lon="6.22334">
        <ele>703</ele>
        <time>2011-08-17T15:31:03Z</time>
      </trkpt>
      <trkpt lat="44.09249" lon="6.22392">
        <ele>692</ele>
        <time>2011-08-17T15:31:14Z</time>
      </trkpt>
      <trkpt lat="44.09249" lon="6.22396">
        <ele>692</ele>
        <time>2011-08-17T15:31:15Z</time>
      </trkpt>
      <trkpt lat="44.09237" lon="6.22392">
        <ele>691</ele>
        <time>2011-08-17T15:31:21Z</time>
      </trkpt>
      <trkpt lat="44.09232" lon="6.22384">
        <ele>690</ele>
        <time>2011-08-17T15:31:23Z</time>
      </trkpt>
      <trkpt lat="44.0922" lon="6.22383">
        <ele>689</ele>
        <time>2011-08-17T15:31:27Z</time>
      </trkpt>
      <trkpt lat="44.09207" lon="6.22388">
        <ele>687</ele>
        <time>2011-08-17T15:31:31Z</time>
      </trkpt>
      <trkpt lat="44.09197" lon="6.22382">
        <ele>686</ele>
        <time>2011-08-17T15:31:35Z</time>
      </trkpt>
      <trkpt lat="44.09175" lon="6.22379">
        <ele>683</ele>
        <time>2011-08-17T15:31:39Z</time>
      </trkpt>
      <trkpt lat="44.09155" lon="6.22381">
        <ele>668</ele>
        <time>2011-08-17T15:31:43Z</time>
      </trkpt>
      <trkpt lat="44.09133" lon="6.22382">
        <ele>665</ele>
        <time>2011-08-17T15:31:54Z</time>
      </trkpt>
      <trkpt lat="44.09132" lon="6.22384">
        <ele>665</ele>
        <time>2011-08-17T15:32:17Z</time>
      </trkpt>
      <trkpt lat="44.09132" lon="6.22383">
        <ele>665</ele>
        <time>2011-08-17T15:32:39Z</time>
      </trkpt>
      <trkpt lat="44.09132" lon="6.22383">
        <ele>665</ele>
        <time>2011-08-17T15:32:50Z</time>
      </trkpt>
      <trkpt lat="44.09128" lon="6.22408">
        <ele>664</ele>
        <time>2011-08-17T15:32:56Z</time>
      </trkpt>
      <trkpt lat="44.09126" lon="6.22433">
        <ele>659</ele>
        <time>2011-08-17T15:33:00Z</time>
      </trkpt>
      <trkpt lat="44.09123" lon="6.22458">
        <ele>658</ele>
        <time>2011-08-17T15:33:03Z</time>
      </trkpt>
      <trkpt lat="44.09122" lon="6.22486">
        <ele>657</ele>
        <time>2011-08-17T15:33:06Z</time>
      </trkpt>
      <trkpt lat="44.09114" lon="6.22513">
        <ele>651</ele>
        <time>2011-08-17T15:33:10Z</time>
      </trkpt>
      <trkpt lat="44.09109" lon="6.22525">
        <ele>650</ele>
        <time>2011-08-17T15:33:12Z</time>
      </trkpt>
      <trkpt lat="44.09097" lon="6.22528">
        <ele>649</ele>
        <time>2011-08-17T15:33:16Z</time>
      </trkpt>
      <trkpt lat="44.09077" lon="6.22457">
        <ele>640</ele>
        <time>2011-08-17T15:33:32Z</time>
      </trkpt>
      <trkpt lat="44.09072" lon="6.22428">
        <ele>643</ele>
        <time>2011-08-17T15:33:38Z</time>
      </trkpt>
      <trkpt lat="44.09062" lon="6.22393">
        <ele>642</ele>
        <time>2011-08-17T15:33:44Z</time>
      </trkpt>
      <trkpt lat="44.09057" lon="6.2238">
        <ele>642</ele>
        <time>2011-08-17T15:33:46Z</time>
      </trkpt>
      <trkpt lat="44.09041" lon="6.22348">
        <ele>640</ele>
        <time>2011-08-17T15:33:51Z</time>
      </trkpt>
      <trkpt lat="44.09022" lon="6.2235">
        <ele>636</ele>
        <time>2011-08-17T15:33:58Z</time>
      </trkpt>
      <trkpt lat="44.09025" lon="6.22371">
        <ele>637</ele>
        <time>2011-08-17T15:34:01Z</time>
      </trkpt>
      <trkpt lat="44.0903" lon="6.22395">
        <ele>637</ele>
        <time>2011-08-17T15:34:04Z</time>
      </trkpt>
      <trkpt lat="44.09018" lon="6.22436">
        <ele>633</ele>
        <time>2011-08-17T15:34:11Z</time>
      </trkpt>
      <trkpt lat="44.09014" lon="6.22415">
        <ele>632</ele>
        <time>2011-08-17T15:34:14Z</time>
      </trkpt>
      <trkpt lat="44.09" lon="6.22398">
        <ele>632</ele>
        <time>2011-08-17T15:34:21Z</time>
      </trkpt>
      <trkpt lat="44.09" lon="6.22405">
        <ele>622</ele>
        <time>2011-08-17T15:34:22Z</time>
      </trkpt>
      <trkpt lat="44.08997" lon="6.2242">
        <ele>624</ele>
        <time>2011-08-17T15:34:24Z</time>
      </trkpt>
      <trkpt lat="44.08992" lon="6.22433">
        <ele>620</ele>
        <time>2011-08-17T15:34:26Z</time>
      </trkpt>
      <trkpt lat="44.08982" lon="6.22458">
        <ele>617</ele>
        <time>2011-08-17T15:34:30Z</time>
      </trkpt>
      <trkpt lat="44.08957" lon="6.22462">
        <ele>615</ele>
        <time>2011-08-17T15:34:35Z</time>
      </trkpt>
      <trkpt lat="44.0894" lon="6.22437">
        <ele>612</ele>
        <time>2011-08-17T15:34:40Z</time>
      </trkpt>
      <trkpt lat="44.08916" lon="6.22319">
        <ele>602</ele>
        <time>2011-08-17T15:34:51Z</time>
      </trkpt>
      <trkpt lat="44.08912" lon="6.22296">
        <ele>601</ele>
        <time>2011-08-17T15:34:55Z</time>
      </trkpt>
      <trkpt lat="44.08905" lon="6.22293">
        <ele>601</ele>
        <time>2011-08-17T15:34:59Z</time>
      </trkpt>
      <trkpt lat="44.08906" lon="6.22301">
        <ele>601</ele>
        <time>2011-08-17T15:35:01Z</time>
      </trkpt>
      <trkpt lat="44.08909" lon="6.22321">
        <ele>602</ele>
        <time>2011-08-17T15:35:04Z</time>
      </trkpt>
      <trkpt lat="44.08918" lon="6.22417">
        <ele>605</ele>
        <time>2011-08-17T15:35:15Z</time>
      </trkpt>
      <trkpt lat="44.08912" lon="6.22489">
        <ele>602</ele>
        <time>2011-08-17T15:35:22Z</time>
      </trkpt>
      <trkpt lat="44.08896" lon="6.2251">
        <ele>599</ele>
        <time>2011-08-17T15:35:28Z</time>
      </trkpt>
      <trkpt lat="44.0887" lon="6.22538">
        <ele>595</ele>
        <time>2011-08-17T15:35:38Z</time>
      </trkpt>
      <trkpt lat="44.08877" lon="6.2256">
        <ele>595</ele>
        <time>2011-08-17T15:35:42Z</time>
      </trkpt>
      <trkpt lat="44.08888" lon="6.22583">
        <ele>596</ele>
        <time>2011-08-17T15:35:46Z</time>
      </trkpt>
      <trkpt lat="44.08918" lon="6.22651">
        <ele>600</ele>
        <time>2011-08-17T15:35:58Z</time>
      </trkpt>
      <trkpt lat="44.08954" lon="6.22761">
        <ele>597</ele>
        <time>2011-08-17T15:36:18Z</time>
      </trkpt>
      <trkpt lat="44.08954" lon="6.22764">
        <ele>597</ele>
        <time>2011-08-17T15:36:19Z</time>
      </trkpt>
      <trkpt lat="44.08947" lon="6.22782">
        <ele>596</ele>
        <time>2011-08-17T15:36:24Z</time>
      </trkpt>
      <trkpt lat="44.08948" lon="6.22802">
        <ele>595</ele>
        <time>2011-08-17T15:36:28Z</time>
      </trkpt>
      <trkpt lat="44.08944" lon="6.22859">
        <ele>591</ele>
        <time>2011-08-17T15:36:38Z</time>
      </trkpt>
      <trkpt lat="44.08935" lon="6.22949">
        <ele>591</ele>
        <time>2011-08-17T15:36:53Z</time>
      </trkpt>
      <trkpt lat="44.08912" lon="6.22969">
        <ele>591</ele>
        <time>2011-08-17T15:37:01Z</time>
      </trkpt>
      <trkpt lat="44.08909" lon="6.22935">
        <ele>590</ele>
        <time>2011-08-17T15:37:08Z</time>
      </trkpt>
      <trkpt lat="44.08934" lon="6.22946">
        <ele>590</ele>
        <time>2011-08-17T15:37:14Z</time>
      </trkpt>
      <trkpt lat="44.08943" lon="6.22955">
        <ele>591</ele>
        <time>2011-08-17T15:37:19Z</time>
      </trkpt>
      <trkpt lat="44.08959" lon="6.22965">
        <ele>591</ele>
        <time>2011-08-17T15:37:24Z</time>
      </trkpt>
      <trkpt lat="44.09012" lon="6.23011">
        <ele>591</ele>
        <time>2011-08-17T15:37:42Z</time>
      </trkpt>
      <trkpt lat="44.09028" lon="6.23024">
        <ele>592</ele>
        <time>2011-08-17T15:37:48Z</time>
      </trkpt>
      <trkpt lat="44.09034" lon="6.23043">
        <ele>592</ele>
        <time>2011-08-17T15:37:53Z</time>
      </trkpt>
      <trkpt lat="44.09059" lon="6.2305">
        <ele>592</ele>
        <time>2011-08-17T15:38:05Z</time>
      </trkpt>
      <trkpt lat="44.09063" lon="6.23067">
        <ele>592</ele>
        <time>2011-08-17T15:38:11Z</time>
      </trkpt>
      <trkpt lat="44.09094" lon="6.23076">
        <ele>593</ele>
        <time>2011-08-17T15:38:21Z</time>
      </trkpt>
      <trkpt lat="44.09103" lon="6.23071">
        <ele>592</ele>
        <time>2011-08-17T15:38:27Z</time>
      </trkpt>
      <trkpt lat="44.09108" lon="6.2307">
        <ele>592</ele>
        <time>2011-08-17T15:38:30Z</time>
      </trkpt>
      <trkpt lat="44.09114" lon="6.23065">
        <ele>592</ele>
        <time>2011-08-17T15:38:43Z</time>
      </trkpt>
      <trkpt lat="44.09142" lon="6.23079">
        <ele>593</ele>
        <time>2011-08-17T15:38:55Z</time>
      </trkpt>
      <trkpt lat="44.09144" lon="6.23079">
        <ele>593</ele>
        <time>2011-08-17T15:38:56Z</time>
      </trkpt>
      <trkpt lat="44.09143" lon="6.23092">
        <ele>594</ele>
        <time>2011-08-17T15:39:00Z</time>
      </trkpt>
      <trkpt lat="44.09139" lon="6.23108">
        <ele>595</ele>
        <time>2011-08-17T15:39:06Z</time>
      </trkpt>
      <trkpt lat="44.09125" lon="6.23122">
        <ele>595</ele>
        <time>2011-08-17T15:39:14Z</time>
      </trkpt>
      <trkpt lat="44.09116" lon="6.23113">
        <ele>594</ele>
        <time>2011-08-17T15:39:18Z</time>
      </trkpt>
      <trkpt lat="44.0909" lon="6.23127">
        <ele>595</ele>
        <time>2011-08-17T15:39:27Z</time>
      </trkpt>
      <trkpt lat="44.09109" lon="6.23153">
        <ele>595</ele>
        <time>2011-08-17T15:39:34Z</time>
      </trkpt>
      <trkpt lat="44.09116" lon="6.23163">
        <ele>595</ele>
        <time>2011-08-17T15:39:37Z</time>
      </trkpt>
      <trkpt lat="44.09138" lon="6.23208">
        <ele>597</ele>
        <time>2011-08-17T15:39:50Z</time>
      </trkpt>
      <trkpt lat="44.0915" lon="6.23263">
        <ele>598</ele>
        <time>2011-08-17T15:40:03Z</time>
      </trkpt>
      <trkpt lat="44.09153" lon="6.23265">
        <ele>598</ele>
        <time>2011-08-17T15:40:04Z</time>
      </trkpt>
      <trkpt lat="44.09172" lon="6.23297">
        <ele>600</ele>
        <time>2011-08-17T15:40:12Z</time>
      </trkpt>
      <trkpt lat="44.0918" lon="6.23307">
        <ele>600</ele>
        <time>2011-08-17T15:40:16Z</time>
      </trkpt>
      <trkpt lat="44.09178" lon="6.23319">
        <ele>600</ele>
        <time>2011-08-17T15:40:29Z</time>
      </trkpt>
    </trkseg>
  </trk>
</gpx>